Terminal Aerodrome Forecast
Issued by NWS

Current Version | Previous Version | Graphics & Text | Print | Product List | Glossary On
Versions: 1 2 3 4 5 6 7 8 9 10 11 12 13 14 15 16 17 18 19 20 21 22 23 24 25 26 27 28 29 30 31 32 33 34 35 36 37 38 39 40 41 42 43 44 45 46 47 48
909
FTUS41 KRNK 211727
TAFLWB
TAF
KLWB 211727Z 2118/2218 28005KT P6SM OVC025
     FM212100 29003KT P6SM OVC035
     FM220300 29003KT P6SM OVC025
     FM220800 31006KT P6SM SCT025
     FM221200 33008KT P6SM SCT150=

USA.gov is the U.S. government's official web portal to all federal, state and local government web resources and services.